Kahlotus, WA (99335)

8:31 PM PDT en Septiembre 16, 2014 (GMT -0700)
Kahlotus | Change Station
CLOSE
Current Station
Estación meteorológica personal
Location: Pasco, WA
Altura: 1230 ft
Estaciones meteorológicas cercanas

Alt 1230 ft 46.64 °N, 118.56 °W | Updated 4 minutes ago

Parcialmente nublado
Parcialmente nublado
76.0 ° F
Sensación térmica 77 ° F
N
7.0
Viento Variable Viento desde OSO
Gusts 9.0 mph

Hoy
Alta -- | Baja -- ° F
--% Posibilidad de precipitaciones
Ayer
Alta -- | Baja -- ° F
Precip. -- pul
6:33 AM 7:03 PM
Cuarto menguante, 40% visible
Presión 29.74 pul
Visibilidad 10.0 Millas
Nubes Despejado
Índice de calor 77 ° F
Punto de rocío 39 ° F
Humedad 26%
Precipitaciones 0.00 pul
Espesor de la nieve 0 in , 0 in , 0 in
UV 0 de una escala de 12
Polen 5.20 de una escala de 12
Calidad del aire No disponible.
Flu Activity No disponible.
METAR KPSC 170253Z 00000KT 10SM CLR 24/09 A2974 RMK AO2 SLP069 T02440094 55001

More Conditions Fewer Conditions

Presión 29.74 pul
Visibilidad 10.0 Millas
Nubes Despejado
Índice de calor 77 ° F
Punto de rocío 39 ° F
Humedad 26%
Precipitaciones 0.00 pul
Espesor de la nieve 0 in , 0 in , 0 in
UV 0 de una escala de 12
Polen 5.20 de una escala de 12
Calidad del aire No disponible.
Flu Activity No disponible.
METAR KPSC 170253Z 00000KT 10SM CLR 24/09 A2974 RMK AO2 SLP069 T02440094 55001

More Conditions Fewer Conditions

10-Day Weather Forecast

Almanac

Astronomía

Sep. 16, 2014 Salida Puesta
Hora real 6:33 AM PDT 7:03 PM PDT
Crepúsculo civil 6:03 AM PDT 7:33 PM PDT
Crepúsculo náutico 5:26 AM PDT 8:09 PM PDT
Crepúsculo astronómico 4:49 AM PDT 8:47 PM PDT
Luna Sin salida de luna 2:46 PM PDT (9/16)
Horas de luz 13h 30m
Horas de luz
12h 30m
Tomorrow will be 3m 18s shorter.
Cuarto menguante, 40% of the Moon is Illuminated
Hoy
Cuarto menguante
Sep 24
Nueva
Oct 1
Cuarto creciente
Oct 8
Luna llena
Oct 15
Cuarto menguante

Extremos de hoy

Máximos del estado Bajos del estado

Community

WunderPhotos

Upload Photos

1,753,954 ¡fotos cargadas!

Nearby

Grosos de nieve

Estación Profundido Altura
Sheep Canyon 0 in 4030 ft
Olallie Meadows 0 in 3700 ft
Grouse Camp 0 in 5380 ft
Wells Creek 0 in 4200 ft
Alpine Meadows 0 in 3500 ft

Actividad de terremotos

Ciudad Distance Mag. Tiempo y dato
No hay informes recientes de la actividad sísmica.
Magnitud mínima muestra es 2,5.

Temperaturas de aguas costeras

Lugar Temperatura
Sin partes meteorológicos de las estaciones

Estaciones meteorológicas cercanas